EDT,Max TemperatureF,Mean TemperatureF,Min TemperatureF,Max Dew PointF,MeanDew PointF,Min DewpointF,Max Humidity, Mean Humidity, Min Humidity, Max Sea Level PressureIn, Mean Sea Level PressureIn, Min Sea Level PressureIn, Max VisibilityMiles, Mean VisibilityMiles, Min VisibilityMiles, Max Wind SpeedMPH, Mean Wind SpeedMPH, Max Gust SpeedMPH,PrecipitationIn, CloudCover, Events, WindDirDegrees
2013-3-1,23,18,14,13,11,10,82,71,62,30.21,30.17,30.09,10,10,7,15,11,18,0.00,3,Snow,343
2013-3-2,23,17,11,12,10,7,85,74,60,30.19,30.14,30.08,10,9,4,14,9,18,0.00,4,Snow,328
2013-3-3,21,11,1,12,6,-3,92,79,57,30.08,30.06,30.02,10,10,10,9,5,,0.00,0,Snow,313
2013-3-4,27,13,-1,12,5,-6,93,71,44,30.15,30.12,30.07,10,10,10,7,4,,0.00,0,,312
2013-3-5,29,16,2,24,14,-2,92,83,75,30.15,30.10,30.05,10,10,10,14,4,18,0.00,5,,55
2013-3-6,33,30,27,30,27,24,96,86,79,30.23,30.17,30.08,10,9,3,14,8,21,0.00,7,Snow,21
2013-3-7,30,25,20,25,20,18,93,79,68,30.42,30.33,30.23,10,10,5,15,9,20,0.00,7,Snow,289
2013-3-8,38,29,20,28,24,19,97,87,65,30.48,30.42,30.36,10,10,7,9,3,,0.00,3,,285
2013-3-9,42,29,16,32,24,15,98,79,50,30.36,30.19,29.98,10,9,2,13,3,20,0.00,3,Snow,132
2013-3-10,39,36,32,39,35,32,100,98,94,29.96,29.86,29.80,10,4,0,13,6,16,0.00,8,Fog-Rain-Snow,116
2013-3-11,48,40,33,45,36,33,100,98,79,29.85,29.56,29.39,10,4,0,15,7,20,0.00,8,Fog-Rain-Snow,78
2013-3-12,32,26,21,33,25,18,100,91,83,29.83,29.68,29.43,10,6,1,13,7,20,0.00,8,Snow,265
2013-3-13,27,22,16,19,15,12,95,76,55,30.15,29.97,29.81,10,8,1,25,9,31,0.00,4,Snow,300
2013-3-14,32,22,13,21,15,8,91,68,46,30.21,30.12,29.95,10,10,10,13,6,16,0.00,2,,277
2013-3-15,32,26,19,29,19,8,96,71,48,29.95,29.88,29.80,10,9,2,22,11,29,0.00,6,Snow,297
2013-3-16,22,18,14,16,10,5,88,73,50,30.00,29.96,29.92,10,6,1,16,7,20,0.00,6,Snow,59
2013-3-17,21,16,11,17,7,2,90,67,52,30.33,30.23,30.00,10,9,1,21,9,30,0.00,2,Snow,41
2013-3-18,33,18,3,29,16,-1,96,79,55,30.22,29.88,29.49,10,8,0,23,7,31,0.00,3,Snow,109
2013-3-19,30,26,22,28,23,18,96,87,77,29.76,29.55,29.41,10,4,0,20,10,28,0.00,8,Snow,230
2013-3-20,26,22,18,23,17,12,93,78,63,29.80,29.78,29.76,10,7,1,20,11,28,0.00,6,Snow,261
2013-3-21,26,24,21,24,19,15,92,80,68,29.90,29.83,29.77,10,8,2,20,11,26,0.00,7,Snow,309
2013-3-22,32,26,21,23,21,16,85,76,65,30.03,29.93,29.87,10,10,10,16,10,21,0.00,7,,296
2013-3-23,36,27,18,28,23,17,98,80,59,30.10,30.06,30.02,10,10,10,15,6,16,0.00,4,,307
2013-3-24,33,27,21,24,21,19,93,77,58,30.09,29.98,29.85,10,10,10,15,5,21,0.00,3,,7
2013-3-25,38,34,29,28,25,23,79,72,57,29.97,29.88,29.84,10,10,5,18,12,25,0.00,8,Snow,7
2013-3-26,41,36,32,29,26,21,88,69,46,30.09,30.03,29.97,10,10,10,17,8,26,0.00,5,,317
2013-3-27,41,34,28,28,27,25,91,73,54,30.18,30.11,30.07,10,10,10,16,11,25,0.00,5,,289
2013-3-28,44,36,29,28,25,21,88,64,43,30.25,30.21,30.18,10,10,10,14,7,20,0.00,3,,281
2013-3-29,45,35,25,28,23,19,89,66,38,30.26,30.23,30.19,10,10,10,8,5,,0.00,0,,293
2013-3-30,50,36,22,36,23,17,93,61,28,30.20,30.03,29.80,10,9,4,15,4,23,0.00,3,Rain,206
2013-3-31,41,34,26,40,34,20,100,91,71,29.78,29.62,29.54,10,5,0,26,8,34,0.00,7,Fog-Rain-Snow,246